sensor_id;sensor_type;location;lat;lon;timestamp;pressure;altitude;pressure_sealevel;temperature;humidity
56414;BME280;42318;48.452;19.526;2023-04-22T00:06:21;98155.34;;;19.71;51.29
56414;BME280;42318;48.452;19.526;2023-04-22T00:13:52;98154.53;;;19.70;51.29
56414;BME280;42318;48.452;19.526;2023-04-22T00:21:22;98152.91;;;19.74;51.19
56414;BME280;42318;48.452;19.526;2023-04-22T00:28:53;98146.69;;;19.79;51.02
56414;BME280;42318;48.452;19.526;2023-04-22T00:36:24;98141.03;;;19.86;51.08
56414;BME280;42318;48.452;19.526;2023-04-22T00:43:56;98136.69;;;19.90;50.78
56414;BME280;42318;48.452;19.526;2023-04-22T00:51:26;98142.19;;;19.95;51.00
56414;BME280;42318;48.452;19.526;2023-04-22T00:58:57;98133.78;;;19.96;50.72
56414;BME280;42318;48.452;19.526;2023-04-22T01:06:29;98130.78;;;19.98;50.66
56414;BME280;42318;48.452;19.526;2023-04-22T01:14:02;98130.53;;;19.99;50.82
56414;BME280;42318;48.452;19.526;2023-04-22T01:21:34;98133.25;;;19.99;50.54
56414;BME280;42318;48.452;19.526;2023-04-22T01:29:05;98131.88;;;19.97;50.74
56414;BME280;42318;48.452;19.526;2023-04-22T01:36:36;98137.31;;;19.97;50.66
56414;BME280;42318;48.452;19.526;2023-04-22T01:44:06;98136.75;;;19.95;50.67
56414;BME280;42318;48.452;19.526;2023-04-22T01:51:37;98147.88;;;19.93;50.67
56414;BME280;42318;48.452;19.526;2023-04-22T01:59:08;98139.41;;;19.90;50.69
56414;BME280;42318;48.452;19.526;2023-04-22T02:06:39;98141.28;;;19.84;50.66
56414;BME280;42318;48.452;19.526;2023-04-22T02:14:10;98139.66;;;19.83;50.50
56414;BME280;42318;48.452;19.526;2023-04-22T02:21:41;98140.22;;;19.85;50.92
56414;BME280;42318;48.452;19.526;2023-04-22T02:29:12;98143.75;;;19.86;50.31
56414;BME280;42318;48.452;19.526;2023-04-22T02:36:43;98141.59;;;19.88;51.10
56414;BME280;42318;48.452;19.526;2023-04-22T02:44:13;98139.94;;;19.87;50.36
56414;BME280;42318;48.452;19.526;2023-04-22T02:51:44;98143.78;;;19.91;50.24
56414;BME280;42318;48.452;19.526;2023-04-22T02:59:15;98142.94;;;19.90;50.61
56414;BME280;42318;48.452;19.526;2023-04-22T03:06:47;98134.53;;;19.92;50.30
56414;BME280;42318;48.452;19.526;2023-04-22T03:14:19;98145.16;;;19.93;50.23
56414;BME280;42318;48.452;19.526;2023-04-22T03:21:50;98144.31;;;19.93;50.33
56414;BME280;42318;48.452;19.526;2023-04-22T03:29:21;98148.13;;;19.92;50.27
56414;BME280;42318;48.452;19.526;2023-04-22T03:36:51;98151.13;;;19.90;50.28
56414;BME280;42318;48.452;19.526;2023-04-22T03:44:22;98155.72;;;19.90;50.34
56414;BME280;42318;48.452;19.526;2023-04-22T03:51:53;98152.47;;;19.88;50.16
56414;BME280;42318;48.452;19.526;2023-04-22T03:59:24;98155.44;;;19.86;50.10
56414;BME280;42318;48.452;19.526;2023-04-22T04:06:55;98163.34;;;19.88;50.42
56414;BME280;42318;48.452;19.526;2023-04-22T04:14:26;98163.34;;;19.88;50.37
56414;BME280;42318;48.452;19.526;2023-04-22T04:21:56;98172.88;;;19.90;50.07
56414;BME280;42318;48.452;19.526;2023-04-22T04:29:27;98168.25;;;19.91;50.06
56414;BME280;42318;48.452;19.526;2023-04-22T04:36:58;98174.75;;;19.90;49.97
56414;BME280;42318;48.452;19.526;2023-04-22T04:44:30;98182.41;;;19.93;49.93
56414;BME280;42318;48.452;19.526;2023-04-22T04:52:01;98181.03;;;19.90;50.05
56414;BME280;42318;48.452;19.526;2023-04-22T04:59:32;98180.75;;;19.92;49.79
56414;BME280;42318;48.452;19.526;2023-04-22T05:07:03;98181.56;;;19.92;50.08
56414;BME280;42318;48.452;19.526;2023-04-22T05:14:34;98186.19;;;19.92;50.06
56414;BME280;42318;48.452;19.526;2023-04-22T05:22:06;98190.28;;;19.94;49.98
56414;BME280;42318;48.452;19.526;2023-04-22T05:29:36;98181.09;;;19.95;50.12
56414;BME280;42318;48.452;19.526;2023-04-22T05:37:07;98186.81;;;19.99;49.89
56414;BME280;42318;48.452;19.526;2023-04-22T05:44:40;98189.53;;;19.99;50.23
56414;BME280;42318;48.452;19.526;2023-04-22T05:52:11;98197.69;;;19.99;50.08
56414;BME280;42318;48.452;19.526;2023-04-22T05:59:41;98192.78;;;19.96;50.42
56414;BME280;42318;48.452;19.526;2023-04-22T06:07:12;98195.72;;;19.94;50.52
56414;BME280;42318;48.452;19.526;2023-04-22T06:14:43;98197.63;;;19.94;50.48
56414;BME280;42318;48.452;19.526;2023-04-22T06:22:14;98200.88;;;19.91;50.38
56414;BME280;42318;48.452;19.526;2023-04-22T06:29:44;98188.88;;;19.87;50.34
56414;BME280;42318;48.452;19.526;2023-04-22T06:37:15;98200.06;;;19.90;50.42
56414;BME280;42318;48.452;19.526;2023-04-22T06:44:46;98190.25;;;19.89;50.55
56414;BME280;42318;48.452;19.526;2023-04-22T06:52:17;98197.06;;;19.92;50.31
56414;BME280;42318;48.452;19.526;2023-04-22T06:59:47;98200.34;;;19.94;50.41
56414;BME280;42318;48.452;19.526;2023-04-22T07:07:18;98199.84;;;19.97;50.14
56414;BME280;42318;48.452;19.526;2023-04-22T07:14:49;98199.63;;;20.03;50.17
56414;BME280;42318;48.452;19.526;2023-04-22T07:22:20;98198.81;;;20.03;50.29
56414;BME280;42318;48.452;19.526;2023-04-22T07:29:50;98195.28;;;20.07;50.19
56414;BME280;42318;48.452;19.526;2023-04-22T07:37:21;98198.81;;;20.08;50.34
56414;BME280;42318;48.452;19.526;2023-04-22T07:44:52;98196.94;;;20.08;50.08
56414;BME280;42318;48.452;19.526;2023-04-22T07:52:23;98189.56;;;20.04;50.23
56414;BME280;42318;48.452;19.526;2023-04-22T07:59:54;98200.19;;;20.11;50.00
56414;BME280;42318;48.452;19.526;2023-04-22T08:07:25;98196.66;;;20.10;49.96
56414;BME280;42318;48.452;19.526;2023-04-22T08:14:55;98192.03;;;20.11;50.17
56414;BME280;42318;48.452;19.526;2023-04-22T08:22:28;98193.94;;;20.10;50.09
56414;BME280;42318;48.452;19.526;2023-04-22T08:29:58;98196.94;;;20.08;50.03
56414;BME280;42318;48.452;19.526;2023-04-22T08:37:29;98201.84;;;20.12;50.21
56414;BME280;42318;48.452;19.526;2023-04-22T08:45:02;98196.66;;;20.10;50.07
56414;BME280;42318;48.452;19.526;2023-04-22T08:52:33;98200.50;;;20.14;50.21
56414;BME280;42318;48.452;19.526;2023-04-22T09:00:04;98199.94;;;20.12;50.29
56414;BME280;42318;48.452;19.526;2023-04-22T09:07:37;98193.41;;;20.13;50.09
56414;BME280;42318;48.452;19.526;2023-04-22T09:15:08;98198.84;;;20.13;50.25
56414;BME280;42318;48.452;19.526;2023-04-22T09:22:47;98188.53;;;20.15;50.04
56414;BME280;42318;48.452;19.526;2023-04-22T09:30:34;98175.75;;;20.16;50.17
56414;BME280;42318;48.452;19.526;2023-04-22T09:38:10;98181.19;;;20.16;50.19
56414;BME280;42318;48.452;19.526;2023-04-22T09:45:41;98167.88;;;20.19;50.09
56414;BME280;42318;48.452;19.526;2023-04-22T09:53:15;98153.47;;;20.19;49.98
56414;BME280;42318;48.452;19.526;2023-04-22T10:00:54;98154.00;;;20.21;50.02
56414;BME280;42318;48.452;19.526;2023-04-22T10:08:26;98142.31;;;20.20;50.16
56414;BME280;42318;48.452;19.526;2023-04-22T10:15:59;98127.34;;;20.18;50.14
56414;BME280;42318;48.452;19.526;2023-04-22T10:23:31;98122.97;;;20.17;50.18
56414;BME280;42318;48.452;19.526;2023-04-22T10:31:19;98124.09;;;20.21;50.23
56414;BME280;42318;48.452;19.526;2023-04-22T10:54:07;98116.75;;;20.21;50.05
56414;BME280;42318;48.452;19.526;2023-04-22T11:02:07;98111.31;;;20.21;50.01
56414;BME280;42318;48.452;19.526;2023-04-22T11:09:39;98104.78;;;20.22;50.06
56414;BME280;42318;48.452;19.526;2023-04-22T11:17:10;98093.91;;;20.22;50.24
56414;BME280;42318;48.452;19.526;2023-04-22T11:25:01;98091.72;;;20.24;50.40
56414;BME280;42318;48.452;19.526;2023-04-22T11:32:35;98090.91;;;20.24;50.28
56414;BME280;42318;48.452;19.526;2023-04-22T11:40:16;98094.44;;;20.19;50.30
56414;BME280;42318;48.452;19.526;2023-04-22T11:47:49;98096.34;;;20.19;50.60
56414;BME280;42318;48.452;19.526;2023-04-22T11:55:22;98094.97;;;20.16;50.63
56414;BME280;42318;48.452;19.526;2023-04-22T12:02:57;98096.88;;;20.21;50.33
56414;BME280;42318;48.452;19.526;2023-04-22T12:10:28;98083.03;;;20.27;50.21
56414;BME280;42318;48.452;19.526;2023-04-22T12:18:00;98084.69;;;20.33;50.49
56414;BME280;42318;48.452;19.526;2023-04-22T12:25:31;98081.97;;;20.33;50.38
56414;BME280;42318;48.452;19.526;2023-04-22T12:33:03;98080.31;;;20.32;49.38
56414;BME280;42318;48.452;19.526;2023-04-22T12:40:34;98071.34;;;20.32;48.36
56414;BME280;42318;48.452;19.526;2023-04-22T12:48:05;98063.47;;;20.35;48.15
56414;BME280;42318;48.452;19.526;2023-04-22T12:55:35;98059.66;;;20.36;48.07
56414;BME280;42318;48.452;19.526;2023-04-22T13:03:06;98049.34;;;20.38;48.06
56414;BME280;42318;48.452;19.526;2023-04-22T13:10:37;98046.94;;;20.42;48.12
56414;BME280;42318;48.452;19.526;2023-04-22T13:18:08;98035.78;;;20.44;48.10
56414;BME280;42318;48.452;19.526;2023-04-22T13:25:38;98042.31;;;20.43;48.18
56414;BME280;42318;48.452;19.526;2023-04-22T13:33:09;98030.06;;;20.40;48.16
56414;BME280;42318;48.452;19.526;2023-04-22T13:40:40;98026.75;;;20.38;47.76
56414;BME280;42318;48.452;19.526;2023-04-22T13:48:11;98027.28;;;20.35;48.10
56414;BME280;42318;48.452;19.526;2023-04-22T13:55:42;98027.28;;;20.35;47.86
56414;BME280;42318;48.452;19.526;2023-04-22T14:03:13;98021.28;;;20.33;48.10
56414;BME280;42318;48.452;19.526;2023-04-22T14:10:43;98019.66;;;20.32;48.02
56414;BME280;42318;48.452;19.526;2023-04-22T14:18:14;98013.66;;;20.30;48.30
56414;BME280;42318;48.452;19.526;2023-04-22T14:25:46;98016.38;;;20.30;48.16
56414;BME280;42318;48.452;19.526;2023-04-22T14:33:18;98014.19;;;20.27;48.14
56414;BME280;42318;48.452;19.526;2023-04-22T14:40:49;98007.94;;;20.26;48.54
56414;BME280;42318;48.452;19.526;2023-04-22T14:48:20;98004.13;;;20.27;48.40
56414;BME280;42318;48.452;19.526;2023-04-22T14:55:54;98002.78;;;20.30;49.24
56414;BME280;42318;48.452;19.526;2023-04-22T15:03:26;97995.97;;;20.32;49.42
56414;BME280;42318;48.452;19.526;2023-04-22T15:10:57;97990.31;;;20.39;49.91
56414;BME280;42318;48.452;19.526;2023-04-22T15:18:29;97990.88;;;20.41;49.69
56414;BME280;42318;48.452;19.526;2023-04-22T15:26:00;97989.25;;;20.45;49.41
56414;BME280;42318;48.452;19.526;2023-04-22T15:33:31;97994.16;;;20.48;49.50
56414;BME280;42318;48.452;19.526;2023-04-22T15:41:01;97985.72;;;20.55;49.12
56414;BME280;42318;48.452;19.526;2023-04-22T15:48:33;97993.06;;;20.54;49.48
56414;BME280;42318;48.452;19.526;2023-04-22T15:56:04;97991.72;;;20.57;49.18
56414;BME280;42318;48.452;19.526;2023-04-22T16:03:34;97995.25;;;20.62;49.33
56414;BME280;42318;48.452;19.526;2023-04-22T16:11:05;97996.06;;;20.63;49.22
56414;BME280;42318;48.452;19.526;2023-04-22T16:18:36;97996.06;;;20.63;49.47
56414;BME280;42318;48.452;19.526;2023-04-22T16:26:07;97985.44;;;20.61;49.69
56414;BME280;42318;48.452;19.526;2023-04-22T16:33:38;97991.16;;;20.60;49.71
56414;BME280;42318;48.452;19.526;2023-04-22T16:41:09;97989.25;;;20.60;49.47
56414;BME280;42318;48.452;19.526;2023-04-22T16:48:41;97993.63;;;20.61;49.82
56414;BME280;42318;48.452;19.526;2023-04-22T16:56:13;97986.00;;;20.58;49.63
56414;BME280;42318;48.452;19.526;2023-04-22T17:03:43;97991.97;;;20.55;49.44
56414;BME280;42318;48.452;19.526;2023-04-22T17:11:14;97993.34;;;20.53;49.86
56414;BME280;42318;48.452;19.526;2023-04-22T17:18:45;97981.91;;;20.51;49.65
56414;BME280;42318;48.452;19.526;2023-04-22T17:26:16;97991.16;;;20.50;49.62
56414;BME280;42318;48.452;19.526;2023-04-22T17:33:47;97983.00;;;20.50;49.69
56414;BME280;42318;48.452;19.526;2023-04-22T17:41:18;97998.50;;;20.49;49.60
56414;BME280;42318;48.452;19.526;2023-04-22T17:48:49;98005.84;;;20.49;50.11
56414;BME280;42318;48.452;19.526;2023-04-22T17:56:20;98006.41;;;20.46;49.77
56414;BME280;42318;48.452;19.526;2023-04-22T18:03:51;98017.56;;;20.44;49.90
56414;BME280;42318;48.452;19.526;2023-04-22T18:11:21;98031.97;;;20.45;50.09
56414;BME280;42318;48.452;19.526;2023-04-22T18:18:53;98037.41;;;20.45;49.77
56414;BME280;42318;48.452;19.526;2023-04-22T18:26:24;98030.88;;;20.41;49.83
56414;BME280;42318;48.452;19.526;2023-04-22T18:33:55;98039.84;;;20.41;49.79
56414;BME280;42318;48.452;19.526;2023-04-22T18:41:25;98043.41;;;20.42;49.94
56414;BME280;42318;48.452;19.526;2023-04-22T18:48:56;98046.13;;;20.42;49.95
56414;BME280;42318;48.452;19.526;2023-04-22T18:56:27;98052.66;;;20.41;49.98
56414;BME280;42318;48.452;19.526;2023-04-22T19:03:59;98058.91;;;20.41;50.12
56414;BME280;42318;48.452;19.526;2023-04-22T19:11:31;98048.28;;;20.40;50.02
56414;BME280;42318;48.452;19.526;2023-04-22T19:19:02;98053.97;;;20.38;50.21
56414;BME280;42318;48.452;19.526;2023-04-22T19:26:32;98052.06;;;20.38;50.29
56414;BME280;42318;48.452;19.526;2023-04-22T19:34:03;98047.41;;;20.34;50.10
56414;BME280;42318;48.452;19.526;2023-04-22T19:41:34;98055.09;;;20.42;49.97
56414;BME280;42318;48.452;19.526;2023-04-22T19:49:05;98055.94;;;20.48;50.07
56414;BME280;42318;48.452;19.526;2023-04-22T19:56:36;98061.63;;;20.46;49.68
56414;BME280;42318;48.452;19.526;2023-04-22T20:04:08;98059.75;;;20.52;50.17
56414;BME280;42318;48.452;19.526;2023-04-22T20:11:39;98065.72;;;20.54;49.96
56414;BME280;42318;48.452;19.526;2023-04-22T20:19:10;98070.66;;;20.67;49.69
56414;BME280;42318;48.452;19.526;2023-04-22T20:26:41;98084.31;;;20.82;49.23
56414;BME280;42318;48.452;19.526;2023-04-22T20:34:12;98068.25;;;20.86;49.06
56414;BME280;42318;48.452;19.526;2023-04-22T20:41:42;98084.00;;;20.79;49.20
56414;BME280;42318;48.452;19.526;2023-04-22T20:49:14;98076.09;;;20.67;49.42
56414;BME280;42318;48.452;19.526;2023-04-22T20:56:44;98072.81;;;20.65;49.83
56414;BME280;42318;48.452;19.526;2023-04-22T21:04:16;98083.16;;;20.63;49.66
56414;BME280;42318;48.452;19.526;2023-04-22T21:11:47;98078.53;;;20.63;49.15
56414;BME280;42318;48.452;19.526;2023-04-22T21:19:19;98086.44;;;20.65;49.34
56414;BME280;42318;48.452;19.526;2023-04-22T21:26:51;98095.16;;;20.67;49.47
56414;BME280;42318;48.452;19.526;2023-04-22T21:34:22;98088.91;;;20.77;49.14
56414;BME280;42318;48.452;19.526;2023-04-22T21:41:53;98090.84;;;20.91;48.86
56414;BME280;42318;48.452;19.526;2023-04-22T21:49:24;98096.28;;;20.96;48.60
56414;BME280;42318;48.452;19.526;2023-04-22T21:56:55;98102.81;;;20.85;49.21
56414;BME280;42318;48.452;19.526;2023-04-22T22:04:27;98107.16;;;20.76;49.06
56414;BME280;42318;48.452;19.526;2023-04-22T22:11:57;98103.03;;;20.68;49.56
56414;BME280;42318;48.452;19.526;2023-04-22T22:19:28;98105.75;;;20.63;49.57
56414;BME280;42318;48.452;19.526;2023-04-22T22:27:00;98098.13;;;20.60;49.39
56414;BME280;42318;48.452;19.526;2023-04-22T22:34:32;98114.72;;;20.59;49.68
56414;BME280;42318;48.452;19.526;2023-04-22T22:42:02;98106.00;;;20.52;49.73
56414;BME280;42318;48.452;19.526;2023-04-22T22:49:33;98126.16;;;20.56;49.66
56414;BME280;42318;48.452;19.526;2023-04-22T22:57:05;98119.63;;;20.52;49.48
56414;BME280;42318;48.452;19.526;2023-04-22T23:04:35;98133.50;;;20.55;49.77
56414;BME280;42318;48.452;19.526;2023-04-22T23:12:08;98120.72;;;20.51;49.42
56414;BME280;42318;48.452;19.526;2023-04-22T23:19:40;98124.50;;;20.50;49.63
56414;BME280;42318;48.452;19.526;2023-04-22T23:27:12;98113.63;;;20.45;49.64
56414;BME280;42318;48.452;19.526;2023-04-22T23:34:44;98123.41;;;20.41;49.58
56414;BME280;42318;48.452;19.526;2023-04-22T23:42:15;98125.22;;;20.35;49.52
56414;BME280;42318;48.452;19.526;2023-04-22T23:49:46;98116.78;;;20.31;49.74
56414;BME280;42318;48.452;19.526;2023-04-22T23:57:17;98112.41;;;20.30;49.67
